sensor_id;sensor_type;location;lat;lon;timestamp;temperature;humidity
17423;DHT22;8829;47.932;7.810;2024-03-02T00:00:38;5.10;99.90
17423;DHT22;8829;47.932;7.810;2024-03-02T00:03:06;5.10;99.90
17423;DHT22;8829;47.932;7.810;2024-03-02T00:05:35;5.20;99.90
17423;DHT22;8829;47.932;7.810;2024-03-02T00:08:05;5.10;99.90
17423;DHT22;8829;47.932;7.810;2024-03-02T00:10:37;5.60;99.90
17423;DHT22;8829;47.932;7.810;2024-03-02T00:13:05;5.70;99.90
17423;DHT22;8829;47.932;7.810;2024-03-02T00:15:41;5.80;99.90
17423;DHT22;8829;47.932;7.810;2024-03-02T00:18:11;5.70;99.90
17423;DHT22;8829;47.932;7.810;2024-03-02T00:20:39;5.70;99.90
17423;DHT22;8829;47.932;7.810;2024-03-02T00:23:09;5.70;99.90
17423;DHT22;8829;47.932;7.810;2024-03-02T00:25:38;5.80;99.90
17423;DHT22;8829;47.932;7.810;2024-03-02T00:28:05;5.80;99.90
17423;DHT22;8829;47.932;7.810;2024-03-02T00:30:54;5.90;99.90
17423;DHT22;8829;47.932;7.810;2024-03-02T00:33:22;5.80;99.90
17423;DHT22;8829;47.932;7.810;2024-03-02T00:35:49;5.80;99.90
17423;DHT22;8829;47.932;7.810;2024-03-02T00:38:17;5.80;99.90
17423;DHT22;8829;47.932;7.810;2024-03-02T00:40:45;5.70;99.90
17423;DHT22;8829;47.932;7.810;2024-03-02T00:46:18;5.60;99.90
17423;DHT22;8829;47.932;7.810;2024-03-02T00:48:52;5.50;99.90
17423;DHT22;8829;47.932;7.810;2024-03-02T00:51:19;5.50;99.90
17423;DHT22;8829;47.932;7.810;2024-03-02T00:53:48;5.60;99.90
17423;DHT22;8829;47.932;7.810;2024-03-02T00:56:15;5.40;99.90
17423;DHT22;8829;47.932;7.810;2024-03-02T00:58:42;5.50;99.90
17423;DHT22;8829;47.932;7.810;2024-03-02T01:01:08;5.50;99.90
17423;DHT22;8829;47.932;7.810;2024-03-02T01:03:35;5.50;99.90
17423;DHT22;8829;47.932;7.810;2024-03-02T01:06:03;5.40;99.90
17423;DHT22;8829;47.932;7.810;2024-03-02T01:08:30;5.50;99.90
17423;DHT22;8829;47.932;7.810;2024-03-02T01:10:58;5.50;99.90
17423;DHT22;8829;47.932;7.810;2024-03-02T01:13:25;5.30;99.90
17423;DHT22;8829;47.932;7.810;2024-03-02T01:15:51;5.40;99.90
17423;DHT22;8829;47.932;7.810;2024-03-02T01:18:18;5.30;99.90
17423;DHT22;8829;47.932;7.810;2024-03-02T01:20:45;5.20;99.90
17423;DHT22;8829;47.932;7.810;2024-03-02T01:23:12;5.10;99.90
17423;DHT22;8829;47.932;7.810;2024-03-02T01:25:38;5.00;99.90
17423;DHT22;8829;47.932;7.810;2024-03-02T01:28:07;4.90;99.90
17423;DHT22;8829;47.932;7.810;2024-03-02T01:30:34;4.90;99.90
17423;DHT22;8829;47.932;7.810;2024-03-02T01:33:00;4.80;99.90
17423;DHT22;8829;47.932;7.810;2024-03-02T01:35:27;4.80;99.90
17423;DHT22;8829;47.932;7.810;2024-03-02T01:37:54;4.90;99.90
17423;DHT22;8829;47.932;7.810;2024-03-02T01:40:21;4.90;99.90
17423;DHT22;8829;47.932;7.810;2024-03-02T01:42:51;4.80;99.90
17423;DHT22;8829;47.932;7.810;2024-03-02T01:45:20;4.90;99.90
17423;DHT22;8829;47.932;7.810;2024-03-02T01:47:46;4.90;99.90
17423;DHT22;8829;47.932;7.810;2024-03-02T01:50:13;4.80;99.90
17423;DHT22;8829;47.932;7.810;2024-03-02T01:52:41;4.90;99.90
17423;DHT22;8829;47.932;7.810;2024-03-02T01:55:09;4.90;99.90
17423;DHT22;8829;47.932;7.810;2024-03-02T01:57:36;3.70;99.90
17423;DHT22;8829;47.932;7.810;2024-03-02T02:00:03;4.80;99.90
17423;DHT22;8829;47.932;7.810;2024-03-02T02:02:32;4.80;99.90
17423;DHT22;8829;47.932;7.810;2024-03-02T02:04:59;5.00;99.90
17423;DHT22;8829;47.932;7.810;2024-03-02T02:07:25;5.40;99.90
17423;DHT22;8829;47.932;7.810;2024-03-02T02:09:52;5.70;99.90
17423;DHT22;8829;47.932;7.810;2024-03-02T02:12:19;5.90;99.90
17423;DHT22;8829;47.932;7.810;2024-03-02T02:14:49;6.10;99.90
17423;DHT22;8829;47.932;7.810;2024-03-02T02:17:16;6.20;99.90
17423;DHT22;8829;47.932;7.810;2024-03-02T02:19:44;6.20;99.90
17423;DHT22;8829;47.932;7.810;2024-03-02T02:22:12;6.40;99.90
17423;DHT22;8829;47.932;7.810;2024-03-02T02:24:40;6.50;99.90
17423;DHT22;8829;47.932;7.810;2024-03-02T02:27:07;6.70;99.90
17423;DHT22;8829;47.932;7.810;2024-03-02T02:29:34;6.90;99.90
17423;DHT22;8829;47.932;7.810;2024-03-02T02:32:00;6.80;99.90
17423;DHT22;8829;47.932;7.810;2024-03-02T02:34:27;6.90;99.90
17423;DHT22;8829;47.932;7.810;2024-03-02T02:36:55;6.90;99.90
17423;DHT22;8829;47.932;7.810;2024-03-02T02:39:23;6.90;99.90
17423;DHT22;8829;47.932;7.810;2024-03-02T02:41:49;7.00;99.90
17423;DHT22;8829;47.932;7.810;2024-03-02T02:44:16;7.00;99.90
17423;DHT22;8829;47.932;7.810;2024-03-02T02:46:43;7.00;99.90
17423;DHT22;8829;47.932;7.810;2024-03-02T02:49:09;6.90;99.90
17423;DHT22;8829;47.932;7.810;2024-03-02T02:51:36;7.00;99.90
17423;DHT22;8829;47.932;7.810;2024-03-02T02:54:03;7.00;99.90
17423;DHT22;8829;47.932;7.810;2024-03-02T02:56:31;7.00;99.90
17423;DHT22;8829;47.932;7.810;2024-03-02T02:58:57;7.00;99.90
17423;DHT22;8829;47.932;7.810;2024-03-02T03:01:25;7.00;99.90
17423;DHT22;8829;47.932;7.810;2024-03-02T03:03:52;7.10;99.90
17423;DHT22;8829;47.932;7.810;2024-03-02T03:06:19;7.00;99.90
17423;DHT22;8829;47.932;7.810;2024-03-02T03:08:45;7.10;99.90
17423;DHT22;8829;47.932;7.810;2024-03-02T03:11:12;7.10;99.90
17423;DHT22;8829;47.932;7.810;2024-03-02T03:13:41;7.10;99.90
17423;DHT22;8829;47.932;7.810;2024-03-02T03:16:08;7.20;99.90
17423;DHT22;8829;47.932;7.810;2024-03-02T03:18:34;7.40;99.90
17423;DHT22;8829;47.932;7.810;2024-03-02T03:21:01;7.50;99.90
17423;DHT22;8829;47.932;7.810;2024-03-02T03:23:28;7.50;99.90
17423;DHT22;8829;47.932;7.810;2024-03-02T03:25:55;7.60;99.90
17423;DHT22;8829;47.932;7.810;2024-03-02T03:28:21;7.70;99.90
17423;DHT22;8829;47.932;7.810;2024-03-02T03:30:50;7.70;99.90
17423;DHT22;8829;47.932;7.810;2024-03-02T03:33:16;7.70;99.90
17423;DHT22;8829;47.932;7.810;2024-03-02T03:35:43;7.70;99.90
17423;DHT22;8829;47.932;7.810;2024-03-02T03:38:10;7.80;99.90
17423;DHT22;8829;47.932;7.810;2024-03-02T03:40:37;7.80;99.90
17423;DHT22;8829;47.932;7.810;2024-03-02T03:43:04;7.80;99.90
17423;DHT22;8829;47.932;7.810;2024-03-02T03:45:30;7.90;99.90
17423;DHT22;8829;47.932;7.810;2024-03-02T03:47:58;7.80;99.90
17423;DHT22;8829;47.932;7.810;2024-03-02T03:50:25;7.90;99.90
17423;DHT22;8829;47.932;7.810;2024-03-02T03:52:51;7.90;99.90
17423;DHT22;8829;47.932;7.810;2024-03-02T03:55:18;7.80;99.90
17423;DHT22;8829;47.932;7.810;2024-03-02T03:57:45;7.70;99.90
17423;DHT22;8829;47.932;7.810;2024-03-02T04:00:12;7.70;99.90
17423;DHT22;8829;47.932;7.810;2024-03-02T04:02:39;6.90;99.90
17423;DHT22;8829;47.932;7.810;2024-03-02T04:05:08;7.80;99.90
17423;DHT22;8829;47.932;7.810;2024-03-02T04:07:36;7.80;99.90
17423;DHT22;8829;47.932;7.810;2024-03-02T04:10:07;7.80;99.90
17423;DHT22;8829;47.932;7.810;2024-03-02T04:12:35;7.80;99.90
17423;DHT22;8829;47.932;7.810;2024-03-02T04:15:02;7.80;99.90
17423;DHT22;8829;47.932;7.810;2024-03-02T04:17:30;7.90;99.90
17423;DHT22;8829;47.932;7.810;2024-03-02T04:19:57;7.90;99.90
17423;DHT22;8829;47.932;7.810;2024-03-02T04:22:25;7.90;99.90
17423;DHT22;8829;47.932;7.810;2024-03-02T04:24:52;7.90;99.90
17423;DHT22;8829;47.932;7.810;2024-03-02T04:27:19;8.00;99.90
17423;DHT22;8829;47.932;7.810;2024-03-02T04:29:45;8.00;99.90
17423;DHT22;8829;47.932;7.810;2024-03-02T04:32:12;8.10;99.90
17423;DHT22;8829;47.932;7.810;2024-03-02T04:34:39;8.10;99.90
17423;DHT22;8829;47.932;7.810;2024-03-02T04:37:06;8.20;99.90
17423;DHT22;8829;47.932;7.810;2024-03-02T04:39:35;8.10;99.90
17423;DHT22;8829;47.932;7.810;2024-03-02T04:42:02;8.20;99.90
17423;DHT22;8829;47.932;7.810;2024-03-02T04:44:29;8.20;99.90
17423;DHT22;8829;47.932;7.810;2024-03-02T04:46:56;8.20;99.90
17423;DHT22;8829;47.932;7.810;2024-03-02T04:49:23;8.30;99.90
17423;DHT22;8829;47.932;7.810;2024-03-02T04:51:50;8.40;99.90
17423;DHT22;8829;47.932;7.810;2024-03-02T04:54:17;8.40;99.90
17423;DHT22;8829;47.932;7.810;2024-03-02T04:56:45;8.40;99.90
17423;DHT22;8829;47.932;7.810;2024-03-02T04:59:15;8.50;99.90
17423;DHT22;8829;47.932;7.810;2024-03-02T05:01:42;8.60;99.90
17423;DHT22;8829;47.932;7.810;2024-03-02T05:04:09;8.50;99.90
17423;DHT22;8829;47.932;7.810;2024-03-02T05:06:37;8.60;99.90
17423;DHT22;8829;47.932;7.810;2024-03-02T05:09:04;8.60;99.90
17423;DHT22;8829;47.932;7.810;2024-03-02T05:11:31;8.60;99.90
17423;DHT22;8829;47.932;7.810;2024-03-02T05:14:19;8.60;99.90
17423;DHT22;8829;47.932;7.810;2024-03-02T05:16:46;8.60;99.90
17423;DHT22;8829;47.932;7.810;2024-03-02T05:19:13;8.70;99.90
17423;DHT22;8829;47.932;7.810;2024-03-02T05:21:39;8.70;99.90
17423;DHT22;8829;47.932;7.810;2024-03-02T05:24:06;8.70;99.90
17423;DHT22;8829;47.932;7.810;2024-03-02T05:26:33;8.70;99.90
17423;DHT22;8829;47.932;7.810;2024-03-02T05:29:00;8.70;99.90
17423;DHT22;8829;47.932;7.810;2024-03-02T05:31:28;8.70;99.90
17423;DHT22;8829;47.932;7.810;2024-03-02T05:33:54;8.80;99.90
17423;DHT22;8829;47.932;7.810;2024-03-02T05:36:21;8.80;99.90
17423;DHT22;8829;47.932;7.810;2024-03-02T05:38:48;8.80;99.90
17423;DHT22;8829;47.932;7.810;2024-03-02T05:41:14;8.90;99.90
17423;DHT22;8829;47.932;7.810;2024-03-02T05:43:41;8.90;99.90
17423;DHT22;8829;47.932;7.810;2024-03-02T05:46:08;8.80;99.90
17423;DHT22;8829;47.932;7.810;2024-03-02T05:48:36;8.80;99.90
17423;DHT22;8829;47.932;7.810;2024-03-02T05:51:03;8.80;99.90
17423;DHT22;8829;47.932;7.810;2024-03-02T05:53:30;8.90;99.90
17423;DHT22;8829;47.932;7.810;2024-03-02T05:55:56;8.80;99.90
17423;DHT22;8829;47.932;7.810;2024-03-02T05:58:23;8.80;99.90
17423;DHT22;8829;47.932;7.810;2024-03-02T06:01:03;8.80;99.90
17423;DHT22;8829;47.932;7.810;2024-03-02T06:03:30;8.90;99.90
17423;DHT22;8829;47.932;7.810;2024-03-02T06:05:58;8.90;99.90
17423;DHT22;8829;47.932;7.810;2024-03-02T06:08:25;9.00;99.90
17423;DHT22;8829;47.932;7.810;2024-03-02T06:10:51;9.10;99.90
17423;DHT22;8829;47.932;7.810;2024-03-02T06:13:18;9.00;99.90
17423;DHT22;8829;47.932;7.810;2024-03-02T06:15:45;9.00;99.90
17423;DHT22;8829;47.932;7.810;2024-03-02T06:18:11;9.00;99.90
17423;DHT22;8829;47.932;7.810;2024-03-02T06:20:38;9.10;99.90
17423;DHT22;8829;47.932;7.810;2024-03-02T06:23:06;9.10;99.90
17423;DHT22;8829;47.932;7.810;2024-03-02T06:25:32;8.90;99.90
17423;DHT22;8829;47.932;7.810;2024-03-02T06:27:59;8.90;99.90
17423;DHT22;8829;47.932;7.810;2024-03-02T06:30:26;8.90;99.90
17423;DHT22;8829;47.932;7.810;2024-03-02T06:32:53;8.90;99.90
17423;DHT22;8829;47.932;7.810;2024-03-02T06:35:19;8.90;99.90
17423;DHT22;8829;47.932;7.810;2024-03-02T06:37:46;8.90;99.90
17423;DHT22;8829;47.932;7.810;2024-03-02T06:40:14;8.80;99.90
17423;DHT22;8829;47.932;7.810;2024-03-02T06:42:41;8.80;99.90
17423;DHT22;8829;47.932;7.810;2024-03-02T06:45:08;8.80;99.90
17423;DHT22;8829;47.932;7.810;2024-03-02T06:47:34;8.90;99.90
17423;DHT22;8829;47.932;7.810;2024-03-02T06:50:01;8.90;99.90
17423;DHT22;8829;47.932;7.810;2024-03-02T06:52:28;9.00;99.90
17423;DHT22;8829;47.932;7.810;2024-03-02T06:54:54;8.90;99.90
17423;DHT22;8829;47.932;7.810;2024-03-02T06:57:22;8.90;99.90
17423;DHT22;8829;47.932;7.810;2024-03-02T06:59:50;8.90;99.90
17423;DHT22;8829;47.932;7.810;2024-03-02T07:02:19;8.90;99.90
17423;DHT22;8829;47.932;7.810;2024-03-02T07:04:46;8.90;99.90
17423;DHT22;8829;47.932;7.810;2024-03-02T07:07:13;8.90;99.90
17423;DHT22;8829;47.932;7.810;2024-03-02T07:09:39;8.90;99.90
17423;DHT22;8829;47.932;7.810;2024-03-02T07:12:07;8.90;99.90
17423;DHT22;8829;47.932;7.810;2024-03-02T07:14:35;8.90;99.90
17423;DHT22;8829;47.932;7.810;2024-03-02T07:17:19;8.90;99.90
17423;DHT22;8829;47.932;7.810;2024-03-02T07:19:46;9.00;99.90
17423;DHT22;8829;47.932;7.810;2024-03-02T07:22:13;9.10;99.90
17423;DHT22;8829;47.932;7.810;2024-03-02T07:24:40;9.00;99.90
17423;DHT22;8829;47.932;7.810;2024-03-02T07:27:07;9.10;99.90
17423;DHT22;8829;47.932;7.810;2024-03-02T07:29:35;9.10;99.90
17423;DHT22;8829;47.932;7.810;2024-03-02T07:32:02;9.20;99.90
17423;DHT22;8829;47.932;7.810;2024-03-02T07:34:29;9.20;99.90
17423;DHT22;8829;47.932;7.810;2024-03-02T07:36:56;9.30;99.90
17423;DHT22;8829;47.932;7.810;2024-03-02T07:39:23;9.40;99.90
17423;DHT22;8829;47.932;7.810;2024-03-02T07:41:50;9.50;99.90
17423;DHT22;8829;47.932;7.810;2024-03-02T07:44:17;9.50;99.90
17423;DHT22;8829;47.932;7.810;2024-03-02T07:46:46;9.50;99.90
17423;DHT22;8829;47.932;7.810;2024-03-02T07:49:13;9.60;99.90
17423;DHT22;8829;47.932;7.810;2024-03-02T07:51:40;9.50;99.90
17423;DHT22;8829;47.932;7.810;2024-03-02T07:54:07;9.50;99.90
17423;DHT22;8829;47.932;7.810;2024-03-02T07:56:34;9.60;99.90
17423;DHT22;8829;47.932;7.810;2024-03-02T07:59:01;9.60;99.90
17423;DHT22;8829;47.932;7.810;2024-03-02T08:01:28;9.60;99.90
17423;DHT22;8829;47.932;7.810;2024-03-02T08:03:57;9.70;99.90
17423;DHT22;8829;47.932;7.810;2024-03-02T08:06:24;9.70;99.90
17423;DHT22;8829;47.932;7.810;2024-03-02T08:08:53;9.70;99.90
17423;DHT22;8829;47.932;7.810;2024-03-02T08:11:20;9.70;99.90
17423;DHT22;8829;47.932;7.810;2024-03-02T08:13:47;9.80;99.90
17423;DHT22;8829;47.932;7.810;2024-03-02T08:16:14;9.80;99.90
17423;DHT22;8829;47.932;7.810;2024-03-02T08:18:41;9.90;99.90
17423;DHT22;8829;47.932;7.810;2024-03-02T08:21:09;9.90;99.90
17423;DHT22;8829;47.932;7.810;2024-03-02T08:23:35;10.00;99.90
17423;DHT22;8829;47.932;7.810;2024-03-02T08:26:03;10.00;99.90
17423;DHT22;8829;47.932;7.810;2024-03-02T08:28:30;10.10;99.90
17423;DHT22;8829;47.932;7.810;2024-03-02T08:30:57;10.20;99.90
17423;DHT22;8829;47.932;7.810;2024-03-02T08:33:24;10.20;99.90
17423;DHT22;8829;47.932;7.810;2024-03-02T08:35:50;10.20;99.90
17423;DHT22;8829;47.932;7.810;2024-03-02T08:38:19;10.20;99.90
17423;DHT22;8829;47.932;7.810;2024-03-02T08:40:45;10.10;99.90
17423;DHT22;8829;47.932;7.810;2024-03-02T08:43:12;10.30;99.90
17423;DHT22;8829;47.932;7.810;2024-03-02T08:45:39;10.30;99.90
17423;DHT22;8829;47.932;7.810;2024-03-02T08:48:07;10.50;99.90
17423;DHT22;8829;47.932;7.810;2024-03-02T08:50:34;10.90;99.90
17423;DHT22;8829;47.932;7.810;2024-03-02T08:53:02;11.30;99.90
17423;DHT22;8829;47.932;7.810;2024-03-02T08:55:30;11.70;99.90
17423;DHT22;8829;47.932;7.810;2024-03-02T08:57:56;12.10;99.90
17423;DHT22;8829;47.932;7.810;2024-03-02T09:00:23;12.30;99.90
17423;DHT22;8829;47.932;7.810;2024-03-02T09:02:51;12.90;99.90
17423;DHT22;8829;47.932;7.810;2024-03-02T09:05:19;13.20;99.90
17423;DHT22;8829;47.932;7.810;2024-03-02T09:07:45;13.50;99.90
17423;DHT22;8829;47.932;7.810;2024-03-02T09:10:15;14.00;99.90
17423;DHT22;8829;47.932;7.810;2024-03-02T09:12:43;14.40;99.90
17423;DHT22;8829;47.932;7.810;2024-03-02T09:15:09;14.50;99.90
17423;DHT22;8829;47.932;7.810;2024-03-02T09:17:36;14.90;99.90
17423;DHT22;8829;47.932;7.810;2024-03-02T09:20:04;14.80;99.90
17423;DHT22;8829;47.932;7.810;2024-03-02T09:22:31;15.30;99.90
17423;DHT22;8829;47.932;7.810;2024-03-02T09:24:57;15.20;99.90
17423;DHT22;8829;47.932;7.810;2024-03-02T09:27:24;15.40;99.90
17423;DHT22;8829;47.932;7.810;2024-03-02T09:29:52;15.20;99.90
17423;DHT22;8829;47.932;7.810;2024-03-02T09:32:19;15.00;99.90
17423;DHT22;8829;47.932;7.810;2024-03-02T09:34:46;15.30;99.90
17423;DHT22;8829;47.932;7.810;2024-03-02T09:37:13;15.30;99.90
17423;DHT22;8829;47.932;7.810;2024-03-02T09:39:40;15.40;99.90
17423;DHT22;8829;47.932;7.810;2024-03-02T09:42:09;15.10;99.90
17423;DHT22;8829;47.932;7.810;2024-03-02T09:44:36;15.10;99.90
17423;DHT22;8829;47.932;7.810;2024-03-02T09:47:06;15.10;99.90
17423;DHT22;8829;47.932;7.810;2024-03-02T09:49:34;15.10;99.90
17423;DHT22;8829;47.932;7.810;2024-03-02T09:52:03;14.70;99.90
17423;DHT22;8829;47.932;7.810;2024-03-02T09:54:31;14.50;99.90
17423;DHT22;8829;47.932;7.810;2024-03-02T09:56:58;14.30;99.90
17423;DHT22;8829;47.932;7.810;2024-03-02T09:59:27;14.20;99.90
17423;DHT22;8829;47.932;7.810;2024-03-02T10:01:58;14.30;99.90
17423;DHT22;8829;47.932;7.810;2024-03-02T10:04:27;14.30;99.90
17423;DHT22;8829;47.932;7.810;2024-03-02T10:07:12;14.20;99.90
17423;DHT22;8829;47.932;7.810;2024-03-02T10:09:40;14.20;99.90
17423;DHT22;8829;47.932;7.810;2024-03-02T10:12:08;14.10;99.90
17423;DHT22;8829;47.932;7.810;2024-03-02T10:14:36;14.10;99.90
17423;DHT22;8829;47.932;7.810;2024-03-02T10:17:04;14.20;99.90
17423;DHT22;8829;47.932;7.810;2024-03-02T10:19:33;14.20;99.90
17423;DHT22;8829;47.932;7.810;2024-03-02T10:22:03;14.10;99.90
17423;DHT22;8829;47.932;7.810;2024-03-02T10:24:36;13.90;99.90
17423;DHT22;8829;47.932;7.810;2024-03-02T10:27:07;13.90;99.90
17423;DHT22;8829;47.932;7.810;2024-03-02T10:29:37;13.80;99.90
17423;DHT22;8829;47.932;7.810;2024-03-02T10:32:04;13.80;99.90
17423;DHT22;8829;47.932;7.810;2024-03-02T10:34:33;13.70;99.90
17423;DHT22;8829;47.932;7.810;2024-03-02T10:37:00;13.80;99.90
17423;DHT22;8829;47.932;7.810;2024-03-02T10:39:28;13.80;99.90
17423;DHT22;8829;47.932;7.810;2024-03-02T10:41:56;13.80;99.90
17423;DHT22;8829;47.932;7.810;2024-03-02T10:44:23;13.70;99.90
17423;DHT22;8829;47.932;7.810;2024-03-02T10:46:50;13.70;99.90
17423;DHT22;8829;47.932;7.810;2024-03-02T10:49:19;13.80;99.90
17423;DHT22;8829;47.932;7.810;2024-03-02T10:51:48;13.80;99.90
17423;DHT22;8829;47.932;7.810;2024-03-02T10:54:15;13.80;99.90
17423;DHT22;8829;47.932;7.810;2024-03-02T10:56:44;13.70;99.90
17423;DHT22;8829;47.932;7.810;2024-03-02T10:59:27;13.70;99.90
17423;DHT22;8829;47.932;7.810;2024-03-02T11:01:56;13.70;99.90
17423;DHT22;8829;47.932;7.810;2024-03-02T11:04:25;13.60;99.90
17423;DHT22;8829;47.932;7.810;2024-03-02T11:06:59;13.30;99.90
17423;DHT22;8829;47.932;7.810;2024-03-02T11:09:28;13.50;99.90
17423;DHT22;8829;47.932;7.810;2024-03-02T11:12:00;13.50;99.90
17423;DHT22;8829;47.932;7.810;2024-03-02T11:14:30;13.50;99.90
17423;DHT22;8829;47.932;7.810;2024-03-02T11:16:59;13.50;99.90
17423;DHT22;8829;47.932;7.810;2024-03-02T11:19:27;13.50;99.90
17423;DHT22;8829;47.932;7.810;2024-03-02T11:21:55;13.60;99.90
17423;DHT22;8829;47.932;7.810;2024-03-02T11:24:30;13.60;99.90
17423;DHT22;8829;47.932;7.810;2024-03-02T11:26:59;13.60;99.90
17423;DHT22;8829;47.932;7.810;2024-03-02T11:29:43;13.70;99.90
17423;DHT22;8829;47.932;7.810;2024-03-02T11:32:14;13.70;99.90
17423;DHT22;8829;47.932;7.810;2024-03-02T11:34:43;13.70;99.90
17423;DHT22;8829;47.932;7.810;2024-03-02T11:37:13;13.80;99.90
17423;DHT22;8829;47.932;7.810;2024-03-02T11:39:41;13.80;99.90
17423;DHT22;8829;47.932;7.810;2024-03-02T11:42:08;13.80;99.90
17423;DHT22;8829;47.932;7.810;2024-03-02T11:44:36;13.90;99.90
17423;DHT22;8829;47.932;7.810;2024-03-02T11:47:06;13.50;99.90
17423;DHT22;8829;47.932;7.810;2024-03-02T11:49:40;13.90;99.90
17423;DHT22;8829;47.932;7.810;2024-03-02T11:52:10;13.90;99.90
17423;DHT22;8829;47.932;7.810;2024-03-02T11:54:39;13.90;99.90
17423;DHT22;8829;47.932;7.810;2024-03-02T11:57:06;13.90;99.90
17423;DHT22;8829;47.932;7.810;2024-03-02T11:59:33;13.90;99.90
17423;DHT22;8829;47.932;7.810;2024-03-02T12:02:00;13.90;99.90
17423;DHT22;8829;47.932;7.810;2024-03-02T12:04:29;13.90;99.90
17423;DHT22;8829;47.932;7.810;2024-03-02T12:06:56;14.00;99.90
17423;DHT22;8829;47.932;7.810;2024-03-02T12:09:25;14.10;99.90
17423;DHT22;8829;47.932;7.810;2024-03-02T12:12:06;14.20;99.90
17423;DHT22;8829;47.932;7.810;2024-03-02T12:14:34;14.40;99.90
17423;DHT22;8829;47.932;7.810;2024-03-02T12:17:01;14.50;99.90
17423;DHT22;8829;47.932;7.810;2024-03-02T12:19:28;14.50;99.90
17423;DHT22;8829;47.932;7.810;2024-03-02T12:21:56;14.40;99.90
17423;DHT22;8829;47.932;7.810;2024-03-02T12:24:23;14.50;99.90
17423;DHT22;8829;47.932;7.810;2024-03-02T12:26:50;14.50;99.90
17423;DHT22;8829;47.932;7.810;2024-03-02T12:29:20;14.60;99.90
17423;DHT22;8829;47.932;7.810;2024-03-02T12:31:48;14.70;99.90
17423;DHT22;8829;47.932;7.810;2024-03-02T12:34:16;14.90;99.90
17423;DHT22;8829;47.932;7.810;2024-03-02T12:36:43;15.00;99.90
17423;DHT22;8829;47.932;7.810;2024-03-02T12:39:13;15.20;99.90
17423;DHT22;8829;47.932;7.810;2024-03-02T12:41:41;15.30;99.90
17423;DHT22;8829;47.932;7.810;2024-03-02T12:44:09;15.40;99.90
17423;DHT22;8829;47.932;7.810;2024-03-02T12:46:37;15.30;99.90
17423;DHT22;8829;47.932;7.810;2024-03-02T12:49:11;15.30;99.90
17423;DHT22;8829;47.932;7.810;2024-03-02T12:51:40;15.20;99.90
17423;DHT22;8829;47.932;7.810;2024-03-02T12:54:09;15.20;99.90
17423;DHT22;8829;47.932;7.810;2024-03-02T12:56:36;15.20;99.80
17423;DHT22;8829;47.932;7.810;2024-03-02T12:59:03;15.30;99.50
17423;DHT22;8829;47.932;7.810;2024-03-02T13:01:30;15.30;99.90
17423;DHT22;8829;47.932;7.810;2024-03-02T13:03:59;15.20;99.90
17423;DHT22;8829;47.932;7.810;2024-03-02T13:06:26;15.10;99.50
17423;DHT22;8829;47.932;7.810;2024-03-02T13:08:54;15.00;99.90
17423;DHT22;8829;47.932;7.810;2024-03-02T13:11:22;14.80;99.70
17423;DHT22;8829;47.932;7.810;2024-03-02T13:13:50;14.80;99.90
17423;DHT22;8829;47.932;7.810;2024-03-02T13:16:17;14.70;99.90
17423;DHT22;8829;47.932;7.810;2024-03-02T13:18:45;14.60;99.90
17423;DHT22;8829;47.932;7.810;2024-03-02T13:21:13;14.60;99.90
17423;DHT22;8829;47.932;7.810;2024-03-02T13:23:40;14.50;99.90
17423;DHT22;8829;47.932;7.810;2024-03-02T13:26:07;14.50;99.90
17423;DHT22;8829;47.932;7.810;2024-03-02T13:28:36;14.40;99.90
17423;DHT22;8829;47.932;7.810;2024-03-02T13:31:03;14.50;99.90
17423;DHT22;8829;47.932;7.810;2024-03-02T13:33:30;14.40;99.90
17423;DHT22;8829;47.932;7.810;2024-03-02T13:35:58;14.40;99.90
17423;DHT22;8829;47.932;7.810;2024-03-02T13:38:26;14.50;99.90
17423;DHT22;8829;47.932;7.810;2024-03-02T13:40:53;14.40;99.90
17423;DHT22;8829;47.932;7.810;2024-03-02T13:43:20;14.50;99.90
17423;DHT22;8829;47.932;7.810;2024-03-02T13:45:46;14.50;99.90
17423;DHT22;8829;47.932;7.810;2024-03-02T13:48:13;14.50;99.90
17423;DHT22;8829;47.932;7.810;2024-03-02T13:50:40;14.40;99.90
17423;DHT22;8829;47.932;7.810;2024-03-02T13:53:07;14.50;99.90
17423;DHT22;8829;47.932;7.810;2024-03-02T13:55:36;14.50;99.90
17423;DHT22;8829;47.932;7.810;2024-03-02T13:58:04;14.50;99.90
17423;DHT22;8829;47.932;7.810;2024-03-02T14:00:30;14.60;99.90
17423;DHT22;8829;47.932;7.810;2024-03-02T14:02:57;14.60;99.90
17423;DHT22;8829;47.932;7.810;2024-03-02T14:05:24;14.60;99.90
17423;DHT22;8829;47.932;7.810;2024-03-02T14:07:50;14.60;99.90
17423;DHT22;8829;47.932;7.810;2024-03-02T14:10:17;14.70;99.90
17423;DHT22;8829;47.932;7.810;2024-03-02T14:12:49;14.80;99.90
17423;DHT22;8829;47.932;7.810;2024-03-02T14:15:15;14.80;99.90
17423;DHT22;8829;47.932;7.810;2024-03-02T14:17:42;14.70;99.90
17423;DHT22;8829;47.932;7.810;2024-03-02T14:20:10;14.70;99.90
17423;DHT22;8829;47.932;7.810;2024-03-02T14:22:38;14.70;99.90
17423;DHT22;8829;47.932;7.810;2024-03-02T14:25:05;14.60;99.90
17423;DHT22;8829;47.932;7.810;2024-03-02T14:27:32;14.30;99.90
17423;DHT22;8829;47.932;7.810;2024-03-02T14:30:00;14.30;99.90
17423;DHT22;8829;47.932;7.810;2024-03-02T14:32:27;14.20;99.90
17423;DHT22;8829;47.932;7.810;2024-03-02T14:34:54;14.10;99.90
17423;DHT22;8829;47.932;7.810;2024-03-02T14:37:21;14.20;99.90
17423;DHT22;8829;47.932;7.810;2024-03-02T14:39:48;14.30;99.90
17423;DHT22;8829;47.932;7.810;2024-03-02T14:42:15;14.30;99.90
17423;DHT22;8829;47.932;7.810;2024-03-02T14:44:42;14.20;99.90
17423;DHT22;8829;47.932;7.810;2024-03-02T14:47:12;14.10;99.90
17423;DHT22;8829;47.932;7.810;2024-03-02T14:49:39;14.10;99.90
17423;DHT22;8829;47.932;7.810;2024-03-02T14:52:07;13.90;99.90
17423;DHT22;8829;47.932;7.810;2024-03-02T14:54:34;13.90;99.90
17423;DHT22;8829;47.932;7.810;2024-03-02T14:57:01;13.70;99.90
17423;DHT22;8829;47.932;7.810;2024-03-02T14:59:28;14.00;99.90
17423;DHT22;8829;47.932;7.810;2024-03-02T15:01:55;13.90;99.90
17423;DHT22;8829;47.932;7.810;2024-03-02T15:04:23;13.70;99.90
17423;DHT22;8829;47.932;7.810;2024-03-02T15:06:50;13.70;99.90
17423;DHT22;8829;47.932;7.810;2024-03-02T15:09:16;13.80;99.90
17423;DHT22;8829;47.932;7.810;2024-03-02T15:11:45;13.80;99.90
17423;DHT22;8829;47.932;7.810;2024-03-02T15:14:12;13.70;99.90
17423;DHT22;8829;47.932;7.810;2024-03-02T15:16:39;13.70;99.90
17423;DHT22;8829;47.932;7.810;2024-03-02T15:19:05;13.70;99.90
17423;DHT22;8829;47.932;7.810;2024-03-02T15:21:33;13.80;99.90
17423;DHT22;8829;47.932;7.810;2024-03-02T15:24:00;13.60;99.90
17423;DHT22;8829;47.932;7.810;2024-03-02T15:26:27;13.50;99.90
17423;DHT22;8829;47.932;7.810;2024-03-02T15:28:54;13.50;99.90
17423;DHT22;8829;47.932;7.810;2024-03-02T15:31:21;13.50;99.90
17423;DHT22;8829;47.932;7.810;2024-03-02T15:33:48;13.50;99.90
17423;DHT22;8829;47.932;7.810;2024-03-02T15:36:15;13.50;99.90
17423;DHT22;8829;47.932;7.810;2024-03-02T15:38:43;13.50;99.90
17423;DHT22;8829;47.932;7.810;2024-03-02T15:41:10;13.50;99.90
17423;DHT22;8829;47.932;7.810;2024-03-02T15:43:36;13.70;99.90
17423;DHT22;8829;47.932;7.810;2024-03-02T15:46:04;13.70;99.90
17423;DHT22;8829;47.932;7.810;2024-03-02T15:48:31;13.70;99.90
17423;DHT22;8829;47.932;7.810;2024-03-02T15:50:58;13.70;99.90
17423;DHT22;8829;47.932;7.810;2024-03-02T15:53:25;13.70;99.90
17423;DHT22;8829;47.932;7.810;2024-03-02T15:55:53;13.70;99.90
17423;DHT22;8829;47.932;7.810;2024-03-02T15:58:20;13.80;99.90
17423;DHT22;8829;47.932;7.810;2024-03-02T16:00:47;13.90;99.90